Marco Polo — C6JZ7 — position and weather

sailwx.info

Track history (hours):
 
Tides and Currents Weather Stations Pressure Air Temp Water Temp Dewpoint Dewpoint Depression Visibility Wind Speed Wind Dir Waves Ship Positions

Marco Polo

Operator: Orient Lines

Last reported at 2019-Dec-08 09:59 UTC. Time now 2019-Dec-08 10:09 UTC.
Position N 51°30' W 002°43'.

Type: Ship. MMSI: 308691456.

Date/timePositionNaut miles runAvg speedWind from/ knotsBaromVisibWave heightAir tempDewpointWater temp
2019-Dec-08 09:59N 51°30' W 002°43'0 0.0
2019-Dec-08 08:59N 51°30' W 002°43'0 0.0
2019-Dec-08 03:29N 51°30' W 002°43'0 0.0
2019-Dec-08 02:59N 51°30' W 002°43'0 0.0
2019-Dec-08 02:29N 51°30' W 002°43'0 0.0
2019-Dec-08 01:29N 51°30' W 002°43'0 0.0
2019-Dec-07 23:59N 51°30' W 002°43'0 0.0
2019-Dec-07 23:29N 51°30' W 002°43'0 0.0
2019-Dec-07 21:29N 51°30' W 002°43'0 0.0
2019-Dec-07 20:29N 51°30' W 002°43'0 0.0
2019-Dec-07 15:29N 51°30' W 002°43'0 0.0
2019-Dec-07 14:29N 51°30' W 002°43'0 0.0
2019-Dec-07 13:59N 51°30' W 002°43'0 0.0
2019-Dec-07 10:29N 51°30' W 002°43'0 0.0
2019-Dec-07 09:29N 51°30' W 002°43'0 0.0
2019-Dec-07 08:29N 51°30' W 002°43'0 0.0
2019-Dec-07 06:59N 51°30' W 002°43'0 0.0
2019-Dec-07 06:29N 51°30' W 002°43'0 0.0
2019-Dec-07 04:29N 51°30' W 002°43'0 0.0
2019-Dec-07 02:59N 51°30' W 002°43'0 0.0
2019-Dec-07 00:59N 51°30' W 002°43'0 0.0
2019-Dec-06 23:59N 51°30' W 002°43'0 0.0
2019-Dec-06 23:29N 51°30' W 002°43'0 0.0
2019-Dec-06 21:29N 51°30' W 002°43'0 0.0
2019-Dec-06 20:59N 51°30' W 002°43'0 0.0
2019-Dec-06 19:59N 51°30' W 002°43'0 0.0
2019-Dec-06 19:29N 51°30' W 002°43'0 0.0
2019-Dec-06 17:59N 51°30' W 002°43'0 0.0
2019-Dec-06 16:59N 51°30' W 002°43'0 0.0
2019-Dec-06 15:59N 51°30' W 002°43'2 1.1
2019-Dec-06 14:30N 51°30' W 002°46'2 4.0
2019-Dec-06 14:01N 51°30' W 002°49'7 6.8
2019-Dec-06 13:00N 51°27' W 002°59'1312.5
2019-Dec-06 12:00N 51°21' W 003°16'7414.8
2019-Dec-06 07:00N 50°51' W 005°04'816.2
2019-Dec-06 06:30N 50°45' W 005°13'66 7.8
2019-Dec-05 22:04N 49°59' W 003°59'4015.8
2019-Dec-05 19:30N 50°01' W 002°56'16515.5
2019-Dec-05 08:55N 50°55' E 001°09'4716.2
2019-Dec-05 06:00N 51°28' E 002°01'816.4
2019-Dec-05 05:30N 51°34' E 002°10'815.6
2019-Dec-05 05:00N 51°40' E 002°18'4816.1
2019-Dec-05 02:00N 52°16' E 003°11'1615.9
2019-Dec-05 01:00N 52°25' E 003°33'47 7.8
2019-Dec-04 19:00N 52°25' E 004°49'3 1.3
2019-Dec-04 16:58N 52°24' E 004°53'0 0.0
2019-Dec-04 11:58N 52°24' E 004°53'0 0.0
2019-Dec-04 09:28N 52°24' E 004°53'0 0.0
2019-Dec-04 08:28N 52°24' E 004°53'0 0.0
2019-Dec-04 06:28N 52°24' E 004°53'0 0.0
2019-Dec-04 05:28N 52°24' E 004°53'0 0.0
2019-Dec-04 04:58N 52°24' E 004°53'0 0.0
2019-Dec-04 03:58N 52°24' E 004°53'0 0.0
2019-Dec-04 03:28N 52°24' E 004°53'0 0.0
2019-Dec-04 02:28N 52°24' E 004°53'0 0.0
2019-Dec-04 01:58N 52°24' E 004°53'0 0.0
2019-Dec-04 00:28N 52°24' E 004°53'0 0.0
2019-Dec-03 23:28N 52°24' E 004°53'0 0.0
2019-Dec-03 21:28N 52°24' E 004°53'0 0.0
2019-Dec-03 20:58N 52°24' E 004°53'0 0.0
2019-Dec-03 20:28N 52°24' E 004°53'0 0.0
2019-Dec-03 19:58N 52°24' E 004°53'0 0.0
2019-Dec-03 16:58N 52°24' E 004°53'0 0.0
2019-Dec-03 14:58N 52°24' E 004°53'0 0.0
2019-Dec-03 13:28N 52°24' E 004°53'0 0.0
2019-Dec-03 11:28N 52°24' E 004°53'0 0.0
2019-Dec-03 09:28N 52°24' E 004°53'0 0.0
2019-Dec-03 08:58N 52°24' E 004°53'0 0.0
2019-Dec-03 08:28N 52°24' E 004°53'0 0.0
2019-Dec-03 07:28N 52°24' E 004°53'0 0.0
2019-Dec-03 06:28N 52°24' E 004°53'0 0.0
2019-Dec-03 05:28N 52°24' E 004°53'0 0.0
2019-Dec-03 04:28N 52°24' E 004°53'0 0.0
2019-Dec-03 03:58N 52°24' E 004°53'0 0.0
2019-Dec-03 03:28N 52°24' E 004°53'0 0.0
2019-Dec-03 00:28N 52°24' E 004°53'0 0.0
2019-Dec-02 22:58N 52°24' E 004°53'0 0.0
2019-Dec-02 22:28N 52°24' E 004°53'0 0.0
2019-Dec-02 21:28N 52°24' E 004°53'0 0.0
2019-Dec-02 19:28N 52°24' E 004°53'0 0.0
2019-Dec-02 18:58N 52°24' E 004°53'0 0.0
2019-Dec-02 18:28N 52°24' E 004°53'0 0.0
2019-Dec-02 17:28N 52°24' E 004°53'0 0.0
2019-Dec-02 16:58N 52°24' E 004°53'0 0.0
2019-Dec-02 15:58N 52°24' E 004°53'0 0.0
2019-Dec-02 12:58N 52°24' E 004°53'0 0.0
2019-Dec-02 11:28N 52°24' E 004°53'0 0.0
2019-Dec-02 08:28N 52°24' E 004°53'0 0.0
2019-Dec-02 07:28N 52°24' E 004°53'0 0.0
2019-Dec-02 06:58N 52°24' E 004°53'0 0.0
2019-Dec-02 05:58N 52°24' E 004°53'0 0.0
2019-Dec-02 04:28N 52°24' E 004°53'0 0.0
2019-Dec-02 03:58N 52°24' E 004°53'0 0.0
2019-Dec-02 03:28N 52°24' E 004°53'0 0.0
2019-Dec-02 01:28N 52°24' E 004°53'0 0.0
2019-Dec-01 23:28N 52°24' E 004°53'0 0.0
2019-Dec-01 20:01N 52°24' E 004°53'0 0.0
2019-Dec-01 18:31N 52°24' E 004°53'0 0.0
2019-Dec-01 16:30N 52°24' E 004°53'0 0.0
2019-Dec-01 16:00N 52°24' E 004°53'0 0.0
2019-Dec-01 14:00N 52°24' E 004°53'0 0.1
2019-Dec-01 13:01N 52°24' E 004°53'0 0.1
2019-Dec-01 11:59N 52°24' E 004°53'0 0.0
2019-Dec-01 11:29N 52°24' E 004°53'0 0.0
2019-Dec-01 08:29N 52°24' E 004°53'0 0.0
2019-Dec-01 05:29N 52°24' E 004°53'0 0.0
2019-Dec-01 04:59N 52°24' E 004°53'0 0.0
2019-Dec-01 03:59N 52°24' E 004°53'0 0.0
2019-Dec-01 03:29N 52°24' E 004°53'0 0.0
2019-Dec-01 02:28N 52°24' E 004°53'0 0.0
2019-Nov-30 23:58N 52°24' E 004°53'0 0.0
2019-Nov-30 22:58N 52°24' E 004°53'0 0.0
2019-Nov-30 21:28N 52°24' E 004°53'0 0.0
2019-Nov-30 20:28N 52°24' E 004°53'0 0.0
2019-Nov-30 18:58N 52°24' E 004°53'0 0.0
2019-Nov-30 18:28N 52°24' E 004°53'0 0.0
2019-Nov-30 13:28N 52°24' E 004°53'0 0.0
2019-Nov-30 12:28N 52°24' E 004°53'0 0.0
2019-Nov-30 05:28N 52°24' E 004°53'0 0.0
2019-Nov-30 04:58N 52°24' E 004°53'0 0.0
2019-Nov-30 03:28N 52°24' E 004°53'0 0.0
2019-Nov-30 02:28N 52°24' E 004°53'0 0.0
2019-Nov-30 00:58N 52°24' E 004°53'0 0.0
2019-Nov-29 22:58N 52°24' E 004°53'0 0.0
2019-Nov-29 21:25N 52°24' E 004°53'0 0.0
2019-Nov-29 20:58N 52°24' E 004°53'0 0.0
2019-Nov-29 20:28N 52°24' E 004°53'0 0.0
2019-Nov-29 19:28N 52°24' E 004°53'0 0.0
2019-Nov-29 17:58N 52°24' E 004°53'0 0.0
2019-Nov-29 17:28N 52°24' E 004°53'0 0.0
2019-Nov-29 16:28N 52°24' E 004°53'0 0.0
2019-Nov-29 15:58N 52°24' E 004°53'0 0.0
2019-Nov-29 15:28N 52°24' E 004°53'0 0.0
2019-Nov-29 13:58N 52°24' E 004°53'0 0.0
2019-Nov-29 11:58N 52°24' E 004°53'0 0.0
2019-Nov-29 11:28N 52°24' E 004°53'0 0.0
2019-Nov-29 09:28N 52°24' E 004°53'0 0.0
2019-Nov-29 07:28N 52°24' E 004°53'0 0.0
2019-Nov-29 06:58N 52°24' E 004°53'0 0.0
2019-Nov-29 06:28N 52°24' E 004°53'0 0.0
2019-Nov-29 04:58N 52°24' E 004°53'0 0.0
2019-Nov-29 04:28N 52°24' E 004°53'0 0.0
2019-Nov-29 03:28N 52°24' E 004°53'0 0.0
2019-Nov-29 02:28N 52°24' E 004°53'0 0.0
2019-Nov-29 01:58N 52°24' E 004°53'0 0.0
2019-Nov-29 00:28N 52°24' E 004°53'0 0.0
2019-Nov-28 21:28N 52°24' E 004°53'0 0.0
2019-Nov-28 19:58N 52°24' E 004°53'0 0.0
2019-Nov-28 19:28N 52°24' E 004°53'0 0.0
2019-Nov-28 18:58N 52°24' E 004°53'0 0.0
2019-Nov-28 17:58N 52°24' E 004°53'0 0.0
2019-Nov-28 16:28N 52°24' E 004°53'0 0.0
2019-Nov-28 15:58N 52°24' E 004°53'0 0.0
2019-Nov-28 14:25N 52°24' E 004°53'0 0.0
2019-Nov-28 13:58N 52°24' E 004°53'0 0.0
2019-Nov-28 13:28N 52°24' E 004°53'  
Track history (hours):
 
Tides and Currents Weather Stations Pressure Air Temp Water Temp Dewpoint Dewpoint Depression Visibility Wind Speed Wind Dir Waves Ship Positions

Marco Polo

Operator: Orient Lines

Last reported at 2019-Dec-08 09:59 UTC. Time now 2019-Dec-08 10:09 UTC.
Position N 51°30' W 002°43'.

Type: Ship. MMSI: 308691456.

Date/timePositionNaut miles runAvg speedWind from/ knotsBaromVisibWave heightAir tempDewpointWater temp
2019-Dec-08 09:59N 51°30' W 002°43'0 0.0
2019-Dec-08 08:59N 51°30' W 002°43'0 0.0
2019-Dec-08 03:29N 51°30' W 002°43'0 0.0
2019-Dec-08 02:59N 51°30' W 002°43'0 0.0
2019-Dec-08 02:29N 51°30' W 002°43'0 0.0
2019-Dec-08 01:29N 51°30' W 002°43'0 0.0
2019-Dec-07 23:59N 51°30' W 002°43'0 0.0
2019-Dec-07 23:29N 51°30' W 002°43'0 0.0
2019-Dec-07 21:29N 51°30' W 002°43'0 0.0
2019-Dec-07 20:29N 51°30' W 002°43'0 0.0
2019-Dec-07 15:29N 51°30' W 002°43'0 0.0
2019-Dec-07 14:29N 51°30' W 002°43'0 0.0
2019-Dec-07 13:59N 51°30' W 002°43'0 0.0
2019-Dec-07 10:29N 51°30' W 002°43'0 0.0
2019-Dec-07 09:29N 51°30' W 002°43'0 0.0
2019-Dec-07 08:29N 51°30' W 002°43'0 0.0
2019-Dec-07 06:59N 51°30' W 002°43'0 0.0
2019-Dec-07 06:29N 51°30' W 002°43'0 0.0
2019-Dec-07 04:29N 51°30' W 002°43'0 0.0
2019-Dec-07 02:59N 51°30' W 002°43'0 0.0
2019-Dec-07 00:59N 51°30' W 002°43'0 0.0
2019-Dec-06 23:59N 51°30' W 002°43'0 0.0
2019-Dec-06 23:29N 51°30' W 002°43'0 0.0
2019-Dec-06 21:29N 51°30' W 002°43'0 0.0
2019-Dec-06 20:59N 51°30' W 002°43'0 0.0
2019-Dec-06 19:59N 51°30' W 002°43'0 0.0
2019-Dec-06 19:29N 51°30' W 002°43'0 0.0
2019-Dec-06 17:59N 51°30' W 002°43'0 0.0
2019-Dec-06 16:59N 51°30' W 002°43'0 0.0
2019-Dec-06 15:59N 51°30' W 002°43'2 1.1
2019-Dec-06 14:30N 51°30' W 002°46'2 4.0
2019-Dec-06 14:01N 51°30' W 002°49'7 6.8
2019-Dec-06 13:00N 51°27' W 002°59'1312.5
2019-Dec-06 12:00N 51°21' W 003°16'7414.8
2019-Dec-06 07:00N 50°51' W 005°04'816.2
2019-Dec-06 06:30N 50°45' W 005°13'66 7.8
2019-Dec-05 22:04N 49°59' W 003°59'4015.8
2019-Dec-05 19:30N 50°01' W 002°56'16515.5
2019-Dec-05 08:55N 50°55' E 001°09'4716.2
2019-Dec-05 06:00N 51°28' E 002°01'816.4
2019-Dec-05 05:30N 51°34' E 002°10'815.6
2019-Dec-05 05:00N 51°40' E 002°18'4816.1
2019-Dec-05 02:00N 52°16' E 003°11'1615.9
2019-Dec-05 01:00N 52°25' E 003°33'47 7.8
2019-Dec-04 19:00N 52°25' E 004°49'3 1.3
2019-Dec-04 16:58N 52°24' E 004°53'0 0.0
2019-Dec-04 11:58N 52°24' E 004°53'0 0.0
2019-Dec-04 09:28N 52°24' E 004°53'0 0.0
2019-Dec-04 08:28N 52°24' E 004°53'0 0.0
2019-Dec-04 06:28N 52°24' E 004°53'0 0.0
2019-Dec-04 05:28N 52°24' E 004°53'0 0.0
2019-Dec-04 04:58N 52°24' E 004°53'0 0.0
2019-Dec-04 03:58N 52°24' E 004°53'0 0.0
2019-Dec-04 03:28N 52°24' E 004°53'0 0.0
2019-Dec-04 02:28N 52°24' E 004°53'0 0.0
2019-Dec-04 01:58N 52°24' E 004°53'0 0.0
2019-Dec-04 00:28N 52°24' E 004°53'0 0.0
2019-Dec-03 23:28N 52°24' E 004°53'0 0.0
2019-Dec-03 21:28N 52°24' E 004°53'0 0.0
2019-Dec-03 20:58N 52°24' E 004°53'0 0.0
2019-Dec-03 20:28N 52°24' E 004°53'0 0.0
2019-Dec-03 19:58N 52°24' E 004°53'0 0.0
2019-Dec-03 16:58N 52°24' E 004°53'0 0.0
2019-Dec-03 14:58N 52°24' E 004°53'0 0.0
2019-Dec-03 13:28N 52°24' E 004°53'0 0.0
2019-Dec-03 11:28N 52°24' E 004°53'0 0.0
2019-Dec-03 09:28N 52°24' E 004°53'0 0.0
2019-Dec-03 08:58N 52°24' E 004°53'0 0.0
2019-Dec-03 08:28N 52°24' E 004°53'0 0.0
2019-Dec-03 07:28N 52°24' E 004°53'0 0.0
2019-Dec-03 06:28N 52°24' E 004°53'0 0.0
2019-Dec-03 05:28N 52°24' E 004°53'0 0.0
2019-Dec-03 04:28N 52°24' E 004°53'0 0.0
2019-Dec-03 03:58N 52°24' E 004°53'0 0.0
2019-Dec-03 03:28N 52°24' E 004°53'0 0.0
2019-Dec-03 00:28N 52°24' E 004°53'0 0.0
2019-Dec-02 22:58N 52°24' E 004°53'0 0.0
2019-Dec-02 22:28N 52°24' E 004°53'0 0.0
2019-Dec-02 21:28N 52°24' E 004°53'0 0.0
2019-Dec-02 19:28N 52°24' E 004°53'0 0.0
2019-Dec-02 18:58N 52°24' E 004°53'0 0.0
2019-Dec-02 18:28N 52°24' E 004°53'0 0.0
2019-Dec-02 17:28N 52°24' E 004°53'0 0.0
2019-Dec-02 16:58N 52°24' E 004°53'0 0.0
2019-Dec-02 15:58N 52°24' E 004°53'0 0.0
2019-Dec-02 12:58N 52°24' E 004°53'0 0.0
2019-Dec-02 11:28N 52°24' E 004°53'0 0.0
2019-Dec-02 08:28N 52°24' E 004°53'0 0.0
2019-Dec-02 07:28N 52°24' E 004°53'0 0.0
2019-Dec-02 06:58N 52°24' E 004°53'0 0.0
2019-Dec-02 05:58N 52°24' E 004°53'0 0.0
2019-Dec-02 04:28N 52°24' E 004°53'0 0.0
2019-Dec-02 03:58N 52°24' E 004°53'0 0.0
2019-Dec-02 03:28N 52°24' E 004°53'0 0.0
2019-Dec-02 01:28N 52°24' E 004°53'0 0.0
2019-Dec-01 23:28N 52°24' E 004°53'0 0.0
2019-Dec-01 20:01N 52°24' E 004°53'0 0.0
2019-Dec-01 18:31N 52°24' E 004°53'0 0.0
2019-Dec-01 16:30N 52°24' E 004°53'0 0.0
2019-Dec-01 16:00N 52°24' E 004°53'0 0.0
2019-Dec-01 14:00N 52°24' E 004°53'0 0.1
2019-Dec-01 13:01N 52°24' E 004°53'0 0.1
2019-Dec-01 11:59N 52°24' E 004°53'0 0.0
2019-Dec-01 11:29N 52°24' E 004°53'0 0.0
2019-Dec-01 08:29N 52°24' E 004°53'0 0.0
2019-Dec-01 05:29N 52°24' E 004°53'0 0.0
2019-Dec-01 04:59N 52°24' E 004°53'0 0.0
2019-Dec-01 03:59N 52°24' E 004°53'0 0.0
2019-Dec-01 03:29N 52°24' E 004°53'0 0.0
2019-Dec-01 02:28N 52°24' E 004°53'0 0.0
2019-Nov-30 23:58N 52°24' E 004°53'0 0.0
2019-Nov-30 22:58N 52°24' E 004°53'0 0.0
2019-Nov-30 21:28N 52°24' E 004°53'0 0.0
2019-Nov-30 20:28N 52°24' E 004°53'0 0.0
2019-Nov-30 18:58N 52°24' E 004°53'0 0.0
2019-Nov-30 18:28N 52°24' E 004°53'0 0.0
2019-Nov-30 13:28N 52°24' E 004°53'0 0.0
2019-Nov-30 12:28N 52°24' E 004°53'0 0.0
2019-Nov-30 05:28N 52°24' E 004°53'0 0.0
2019-Nov-30 04:58N 52°24' E 004°53'0 0.0
2019-Nov-30 03:28N 52°24' E 004°53'0 0.0
2019-Nov-30 02:28N 52°24' E 004°53'0 0.0
2019-Nov-30 00:58N 52°24' E 004°53'0 0.0
2019-Nov-29 22:58N 52°24' E 004°53'0 0.0
2019-Nov-29 21:25N 52°24' E 004°53'0 0.0
2019-Nov-29 20:58N 52°24' E 004°53'0 0.0
2019-Nov-29 20:28N 52°24' E 004°53'0 0.0
2019-Nov-29 19:28N 52°24' E 004°53'0 0.0
2019-Nov-29 17:58N 52°24' E 004°53'0 0.0
2019-Nov-29 17:28N 52°24' E 004°53'0 0.0
2019-Nov-29 16:28N 52°24' E 004°53'0 0.0
2019-Nov-29 15:58N 52°24' E 004°53'0 0.0
2019-Nov-29 15:28N 52°24' E 004°53'0 0.0
2019-Nov-29 13:58N 52°24' E 004°53'0 0.0
2019-Nov-29 11:58N 52°24' E 004°53'0 0.0
2019-Nov-29 11:28N 52°24' E 004°53'0 0.0
2019-Nov-29 09:28N 52°24' E 004°53'0 0.0
2019-Nov-29 07:28N 52°24' E 004°53'0 0.0
2019-Nov-29 06:58N 52°24' E 004°53'0 0.0
2019-Nov-29 06:28N 52°24' E 004°53'0 0.0
2019-Nov-29 04:58N 52°24' E 004°53'0 0.0
2019-Nov-29 04:28N 52°24' E 004°53'0 0.0
2019-Nov-29 03:28N 52°24' E 004°53'0 0.0
2019-Nov-29 02:28N 52°24' E 004°53'0 0.0
2019-Nov-29 01:58N 52°24' E 004°53'0 0.0
2019-Nov-29 00:28N 52°24' E 004°53'0 0.0
2019-Nov-28 21:28N 52°24' E 004°53'0 0.0
2019-Nov-28 19:58N 52°24' E 004°53'0 0.0
2019-Nov-28 19:28N 52°24' E 004°53'0 0.0
2019-Nov-28 18:58N 52°24' E 004°53'0 0.0
2019-Nov-28 17:58N 52°24' E 004°53'0 0.0
2019-Nov-28 16:28N 52°24' E 004°53'0 0.0
2019-Nov-28 15:58N 52°24' E 004°53'0 0.0
2019-Nov-28 14:25N 52°24' E 004°53'0 0.0
2019-Nov-28 13:58N 52°24' E 004°53'0 0.0
2019-Nov-28 13:28N 52°24' E 004°53'  

Dump ship's entire track history